Time;durP1;ratioP1;P1;durP2;ratioP2;P2;SDS_P1;SDS_P2;PMS_P1;PMS_P2;Temp;Humidity;BMP_temperature;BMP_pressure;BME280_temperature;BME280_humidity;BME280_pressure;Samples;Min_cycle;Max_cycle;Signal;HPM_P1;HPM_P2
2024/01/06 00:02:19;;;;;;;1.40;1.40;;;17.10;72.70;;;;;;5048469;28;43428;-73
2024/01/06 00:04:47;;;;;;;1.57;1.57;;;17.10;72.80;;;;;;5049024;28;43563;-72
2024/01/06 00:07:15;;;;;;;1.53;1.53;;;17.10;72.80;;;;;;5049039;28;43499;-71
2024/01/06 00:09:46;;;;;;;1.60;1.60;;;17.10;72.70;;;;;;5052020;28;43431;-72
2024/01/06 00:12:15;;;;;;;1.43;1.43;;;17.10;72.70;;;;;;5049276;28;43470;-73
2024/01/06 00:14:45;;;;;;;1.53;1.50;;;17.10;72.80;;;;;;5046772;28;46369;-72
2024/01/06 00:17:13;;;;;;;1.50;1.50;;;17.10;72.80;;;;;;5047531;28;43346;-72
2024/01/06 00:19:43;;;;;;;1.60;1.60;;;17.00;72.80;;;;;;5048745;28;43456;-73
2024/01/06 00:22:12;;;;;;;1.57;1.57;;;17.00;72.90;;;;;;5048276;28;43447;-72
2024/01/06 00:24:43;;;;;;;1.77;1.77;;;17.10;72.80;;;;;;5048326;28;43608;-72
2024/01/06 00:27:16;;;;;;;1.50;1.50;;;17.20;72.50;;;;;;5048942;28;43534;-72
2024/01/06 00:29:45;;;;;;;1.30;1.30;;;17.20;72.10;;;;;;5044995;28;43394;-71
2024/01/06 00:32:13;;;;;;;1.70;1.70;;;17.20;72.10;;;;;;5047349;28;43452;-72
2024/01/06 00:34:42;;;;;;;1.40;1.40;;;17.20;72.20;;;;;;5046782;28;45686;-72
2024/01/06 00:37:12;;;;;;;1.30;1.30;;;17.20;72.50;;;;;;5048035;28;43443;-74
2024/01/06 00:39:41;;;;;;;1.40;1.40;;;17.20;72.30;;;;;;5047181;28;43403;-71
2024/01/06 00:42:09;;;;;;;1.40;1.40;;;17.20;72.40;;;;;;5048850;28;43398;-73
2024/01/06 00:44:40;;;;;;;1.37;1.37;;;17.10;72.40;;;;;;5046104;28;45591;-72
2024/01/06 00:47:11;;;;;;;1.40;1.40;;;17.10;72.50;;;;;;5048434;28;43404;-72
2024/01/06 00:49:46;;;;;;;1.80;1.50;;;17.10;72.60;;;;;;5040365;28;43437;-72
2024/01/06 00:52:17;;;;;;;1.40;1.40;;;17.10;72.80;;;;;;5043565;28;43447;-72
2024/01/06 00:54:46;;;;;;;1.50;1.50;;;17.10;72.70;;;;;;5046595;28;45375;-72
2024/01/06 00:57:14;;;;;;;1.40;1.40;;;17.20;72.50;;;;;;5047755;28;43516;-71
2024/01/06 00:59:45;;;;;;;1.70;1.70;;;17.20;72.20;;;;;;5053837;28;43470;-74
2024/01/06 01:02:17;;;;;;;1.30;1.30;;;17.20;72.20;;;;;;5048405;28;43978;-73
2024/01/06 01:04:59;;;;;;;1.40;1.40;;;17.20;72.30;;;;;;5048038;28;43705;-76
2024/01/06 01:07:35;;;;;;;1.50;1.50;;;17.10;72.40;;;;;;5046637;28;43416;-72
2024/01/06 01:10:10;;;;;;;1.30;1.30;;;17.10;72.40;;;;;;5048238;28;43482;-73
2024/01/06 01:12:47;;;;;;;1.50;1.50;;;17.10;72.40;;;;;;5046452;28;43478;-73
2024/01/06 01:15:17;;;;;;;1.30;1.30;;;17.10;72.50;;;;;;5040874;28;45662;-73
2024/01/06 01:17:46;;;;;;;1.27;1.27;;;17.10;72.50;;;;;;5046175;28;44383;-72
2024/01/06 01:20:17;;;;;;;1.27;1.27;;;17.10;72.70;;;;;;5046607;28;43449;-72
2024/01/06 01:22:46;;;;;;;1.50;1.50;;;17.10;72.80;;;;;;5046571;28;43508;-74
2024/01/06 01:25:16;;;;;;;1.33;1.33;;;17.00;72.60;;;;;;5047416;28;43882;-72
2024/01/06 01:27:48;;;;;;;1.30;1.30;;;17.00;72.60;;;;;;5047436;28;43949;-71
2024/01/06 01:30:16;;;;;;;1.50;1.50;;;17.00;72.60;;;;;;5047511;28;43822;-72
2024/01/06 01:32:46;;;;;;;1.40;1.40;;;17.00;72.60;;;;;;5046863;28;43429;-71
2024/01/06 01:35:14;;;;;;;1.30;1.30;;;17.00;72.70;;;;;;5047785;28;43858;-73
2024/01/06 01:37:42;;;;;;;1.20;1.20;;;17.00;72.80;;;;;;5047354;28;43554;-72
2024/01/06 01:40:13;;;;;;;1.40;1.40;;;17.00;72.90;;;;;;5045778;28;43405;-72
2024/01/06 01:42:48;;;;;;;1.23;1.23;;;17.10;72.90;;;;;;5048254;28;43401;-73
2024/01/06 01:45:19;;;;;;;1.50;1.50;;;17.20;72.50;;;;;;5047714;28;45309;-72
2024/01/06 01:47:49;;;;;;;1.10;1.10;;;17.30;72.00;;;;;;5045367;28;44772;-73
2024/01/06 01:50:17;;;;;;;1.37;1.37;;;17.30;71.90;;;;;;5067410;28;43418;-73
2024/01/06 01:52:49;;;;;;;1.30;1.30;;;17.20;71.90;;;;;;5046193;28;43475;-73
2024/01/06 01:55:18;;;;;;;1.50;1.50;;;17.20;72.20;;;;;;5045126;28;45954;-72
2024/01/06 01:57:46;;;;;;;1.50;1.50;;;17.20;72.00;;;;;;5047017;28;43372;-72
2024/01/06 02:00:15;;;;;;;1.30;1.30;;;17.20;72.10;;;;;;5045812;28;43457;-74
2024/01/06 02:02:47;;;;;;;1.40;1.40;;;17.20;72.20;;;;;;5046202;28;43440;-73
2024/01/06 02:05:17;;;;;;;1.10;1.10;;;17.10;72.20;;;;;;5045359;28;45403;-75
2024/01/06 02:07:50;;;;;;;1.33;1.33;;;17.10;72.40;;;;;;5046760;28;43874;-73
2024/01/06 02:10:18;;;;;;;1.20;1.20;;;17.10;73.30;;;;;;5047678;28;43510;-75
2024/01/06 02:12:47;;;;;;;1.17;1.17;;;17.10;72.60;;;;;;5047030;28;43374;-73
2024/01/06 02:15:24;;;;;;;1.30;1.30;;;17.10;72.60;;;;;;5044955;28;45730;-74
2024/01/06 02:17:54;;;;;;;1.30;1.30;;;17.10;72.60;;;;;;5046530;28;43419;-71
2024/01/06 02:20:24;;;;;;;1.40;1.40;;;17.00;72.50;;;;;;5045332;28;43507;-72
2024/01/06 02:22:58;;;;;;;1.23;1.23;;;17.00;72.60;;;;;;5047094;28;43544;-73
2024/01/06 02:25:26;;;;;;;1.30;1.30;;;17.00;72.70;;;;;;5039073;28;43612;-73
2024/01/06 02:27:54;;;;;;;1.30;1.30;;;17.00;72.80;;;;;;5039037;28;44765;-73
2024/01/06 02:30:23;;;;;;;1.20;1.20;;;17.10;72.70;;;;;;5044550;28;43495;-71
2024/01/06 02:32:52;;;;;;;1.53;1.50;;;17.20;72.40;;;;;;5045462;28;43998;-73
2024/01/06 02:35:22;;;;;;;1.30;1.30;;;17.20;72.10;;;;;;5046335;28;43610;-72
2024/01/06 02:37:50;;;;;;;1.10;1.10;;;17.20;72.00;;;;;;5044939;28;44657;-72
2024/01/06 02:40:20;;;;;;;1.23;1.23;;;17.20;72.20;;;;;;5047167;28;43395;-72
2024/01/06 02:42:48;;;;;;;1.10;1.10;;;17.20;72.40;;;;;;5050463;28;43393;-72
2024/01/06 02:45:16;;;;;;;1.20;1.20;;;17.10;72.10;;;;;;5048445;28;45669;-71
2024/01/06 02:47:59;;;;;;;1.20;1.20;;;17.10;72.20;;;;;;5050239;28;44163;-72
2024/01/06 02:50:36;;;;;;;1.10;1.10;;;17.10;72.30;;;;;;5049416;28;43440;-73
2024/01/06 02:53:13;;;;;;;1.20;1.20;;;17.10;72.40;;;;;;5046001;28;43937;-73
2024/01/06 02:55:45;;;;;;;1.30;1.30;;;17.00;72.50;;;;;;5050075;28;43602;-73
2024/01/06 02:58:13;;;;;;;1.10;1.10;;;17.00;72.70;;;;;;5049805;28;44458;-72
2024/01/06 03:00:48;;;;;;;1.40;1.40;;;17.00;72.50;;;;;;5048393;28;43416;-73
2024/01/06 03:03:16;;;;;;;0.97;0.97;;;17.00;73.30;;;;;;5050288;28;43455;-73
2024/01/06 03:06:01;;;;;;;1.00;1.00;;;17.00;72.60;;;;;;5049537;28;43623;-72
2024/01/06 03:08:29;;;;;;;1.30;1.30;;;17.00;72.60;;;;;;5051375;28;43395;-74
2024/01/06 03:10:59;;;;;;;1.10;1.10;;;17.00;72.70;;;;;;5051330;28;43390;-75
2024/01/06 03:13:29;;;;;;;1.27;1.27;;;17.00;72.90;;;;;;5049809;28;43528;-73
2024/01/06 03:15:57;;;;;;;1.30;1.30;;;17.00;72.80;;;;;;5049695;28;43710;-72
2024/01/06 03:18:25;;;;;;;1.30;1.30;;;17.10;72.40;;;;;;5049337;28;43424;-73
2024/01/06 03:20:53;;;;;;;1.20;1.20;;;17.20;72.10;;;;;;5048085;28;43396;-73
2024/01/06 03:23:21;;;;;;;1.10;1.10;;;17.20;72.00;;;;;;5043742;28;43510;-73
2024/01/06 03:25:49;;;;;;;1.20;1.20;;;17.20;72.10;;;;;;5048059;28;45671;-72
2024/01/06 03:28:19;;;;;;;1.00;1.00;;;17.10;72.10;;;;;;5049875;28;43390;-73
2024/01/06 03:30:47;;;;;;;1.30;1.30;;;17.10;72.30;;;;;;5047836;28;44020;-72
2024/01/06 03:33:15;;;;;;;1.07;1.07;;;17.10;72.30;;;;;;5048517;28;43441;-74
2024/01/06 03:35:47;;;;;;;1.13;1.13;;;17.10;72.30;;;;;;5047516;28;45612;-72
2024/01/06 03:38:16;;;;;;;1.13;1.13;;;17.10;72.40;;;;;;5046969;28;44557;-72
2024/01/06 03:40:44;;;;;;;1.00;1.00;;;17.00;72.40;;;;;;5047791;28;43431;-75
2024/01/06 03:43:12;;;;;;;1.20;1.20;;;17.00;72.50;;;;;;5049728;28;44022;-73
2024/01/06 03:45:47;;;;;;;1.20;1.20;;;17.00;72.70;;;;;;5049279;28;43737;-75
2024/01/06 03:48:15;;;;;;;1.30;1.30;;;17.00;72.70;;;;;;5048140;28;43410;-73
2024/01/06 03:50:46;;;;;;;1.10;1.10;;;17.00;72.60;;;;;;5048083;28;43392;-71
2024/01/06 03:53:15;;;;;;;1.30;1.30;;;17.00;72.60;;;;;;5049796;28;43886;-73
2024/01/06 03:55:46;;;;;;;1.10;1.10;;;17.00;72.70;;;;;;5047300;28;45726;-73
2024/01/06 03:58:14;;;;;;;1.33;1.23;;;16.90;72.70;;;;;;5046935;28;44479;-72
2024/01/06 04:00:50;;;;;;;1.13;1.13;;;16.90;72.90;;;;;;5048675;28;43342;-71
2024/01/06 04:03:19;;;;;;;1.10;1.10;;;17.00;72.90;;;;;;5048918;28;43950;-71
2024/01/06 04:05:47;;;;;;;1.20;1.20;;;17.00;72.50;;;;;;5048919;28;43797;-72
2024/01/06 04:08:15;;;;;;;1.03;1.03;;;17.10;72.40;;;;;;5048201;28;43443;-72
2024/01/06 04:10:43;;;;;;;1.00;1.00;;;17.10;72.30;;;;;;5050863;28;43444;-71
2024/01/06 04:13:12;;;;;;;1.20;1.20;;;17.10;72.40;;;;;;5049120;28;43443;-74
2024/01/06 04:15:45;;;;;;;1.10;1.10;;;17.00;72.40;;;;;;5048761;28;44000;-72
2024/01/06 04:18:14;;;;;;;0.97;0.97;;;17.00;72.50;;;;;;5048583;28;44043;-73
2024/01/06 04:20:45;;;;;;;0.93;0.93;;;17.00;72.40;;;;;;5049054;28;43433;-72
2024/01/06 04:23:13;;;;;;;1.10;1.10;;;17.00;72.40;;;;;;5048832;28;43462;-72
2024/01/06 04:25:43;;;;;;;1.20;1.20;;;17.00;72.50;;;;;;5048288;28;44001;-73
2024/01/06 04:28:11;;;;;;;1.20;1.20;;;17.00;72.60;;;;;;5046676;28;44679;-72
2024/01/06 04:30:49;;;;;;;1.07;1.07;;;16.90;72.60;;;;;;5048692;28;43378;-73
2024/01/06 04:33:19;;;;;;;0.97;0.97;;;16.90;72.70;;;;;;5049009;28;43466;-72
2024/01/06 04:35:50;;;;;;;1.10;1.10;;;17.00;72.70;;;;;;5047968;28;43891;-73
2024/01/06 04:38:18;;;;;;;1.20;1.20;;;17.00;72.70;;;;;;5047860;28;43346;-72
2024/01/06 04:40:46;;;;;;;1.20;1.20;;;16.90;72.60;;;;;;5048228;28;43478;-72
2024/01/06 04:43:14;;;;;;;1.00;1.00;;;16.90;72.70;;;;;;5048682;28;43419;-73
2024/01/06 04:45:42;;;;;;;1.20;1.20;;;16.90;72.70;;;;;;5046323;28;45638;-73
2024/01/06 04:48:13;;;;;;;1.03;1.03;;;16.90;72.80;;;;;;5048099;28;43510;-74
2024/01/06 04:50:46;;;;;;;1.13;1.13;;;17.00;72.80;;;;;;5046640;28;43355;-75
2024/01/06 04:53:14;;;;;;;0.93;0.90;;;17.10;72.50;;;;;;5046752;28;43479;-71
2024/01/06 04:55:45;;;;;;;1.10;1.10;;;17.20;72.00;;;;;;5047801;28;43587;-71
2024/01/06 04:58:13;;;;;;;1.00;1.00;;;17.20;71.70;;;;;;5046144;28;44416;-75
2024/01/06 05:00:46;;;;;;;1.00;1.00;;;17.20;71.70;;;;;;5046734;28;43417;-73
2024/01/06 05:03:14;;;;;;;1.17;1.17;;;17.20;71.90;;;;;;5046132;28;43619;-71
2024/01/06 05:05:46;;;;;;;1.10;1.10;;;17.20;72.00;;;;;;5047724;28;43792;-71
2024/01/06 05:08:14;;;;;;;1.30;1.30;;;17.20;71.90;;;;;;5048098;28;43984;-72
2024/01/06 05:10:42;;;;;;;1.10;1.10;;;17.20;72.10;;;;;;5048100;28;43480;-72
2024/01/06 05:13:17;;;;;;;1.20;1.20;;;17.10;72.00;;;;;;5047945;28;43421;-73
2024/01/06 05:15:45;;;;;;;1.07;1.07;;;17.10;72.20;;;;;;5044788;28;43608;-72
2024/01/06 05:18:13;;;;;;;0.93;0.93;;;17.10;72.40;;;;;;5045863;28;44925;-73
2024/01/06 05:20:42;;;;;;;1.10;1.10;;;17.00;72.30;;;;;;5047856;28;43403;-73
2024/01/06 05:23:14;;;;;;;1.03;1.03;;;17.00;72.30;;;;;;5046253;28;43443;-72
2024/01/06 05:25:43;;;;;;;1.20;1.20;;;17.00;72.30;;;;;;5047613;28;43719;-72
2024/01/06 05:28:11;;;;;;;1.00;1.00;;;17.00;72.40;;;;;;5045783;28;44384;-74
2024/01/06 05:30:42;;;;;;;1.10;1.10;;;17.00;72.50;;;;;;5047632;28;43483;-74
2024/01/06 05:33:12;;;;;;;1.33;1.33;;;17.00;72.50;;;;;;5048004;28;43439;-73
2024/01/06 05:35:42;;;;;;;1.10;1.10;;;17.00;72.80;;;;;;5047153;28;43592;-74
2024/01/06 05:38:10;;;;;;;1.10;1.10;;;17.00;72.50;;;;;;5045058;28;44716;-73
2024/01/06 05:40:43;;;;;;;1.10;1.10;;;17.10;72.20;;;;;;5045587;28;43921;-73
2024/01/06 05:43:11;;;;;;;1.30;1.30;;;17.20;71.90;;;;;;5046174;28;43364;-73
2024/01/06 05:45:44;;;;;;;1.10;1.10;;;17.20;71.90;;;;;;5047383;28;43760;-72
2024/01/06 05:48:13;;;;;;;0.90;0.90;;;17.10;72.00;;;;;;5047048;28;43433;-72
2024/01/06 05:50:44;;;;;;;1.10;1.10;;;17.10;72.20;;;;;;5041124;28;43390;-72
2024/01/06 05:53:14;;;;;;;0.80;0.80;;;17.10;72.10;;;;;;5044192;28;43597;-75
2024/01/06 05:55:45;;;;;;;0.93;0.93;;;17.10;72.10;;;;;;5046953;28;44068;-74
2024/01/06 05:58:14;;;;;;;1.07;1.07;;;17.10;72.20;;;;;;5047128;28;43476;-72
2024/01/06 06:00:42;;;;;;;1.10;1.10;;;17.00;72.20;;;;;;5046911;28;43378;-73
2024/01/06 06:03:13;;;;;;;1.20;1.20;;;17.00;72.30;;;;;;5047074;28;43424;-75
2024/01/06 06:05:41;;;;;;;1.00;1.00;;;17.00;72.40;;;;;;5041813;28;43599;-72
2024/01/06 06:08:09;;;;;;;1.10;1.10;;;17.00;72.40;;;;;;5046980;28;43389;-72
2024/01/06 06:10:59;;;;;;;1.10;1.10;;;17.00;72.40;;;;;;5050998;28;43462;-72
2024/01/06 06:13:29;;;;;;;1.10;1.10;;;17.00;72.50;;;;;;5046726;28;43438;-72
2024/01/06 06:15:57;;;;;;;1.00;1.00;;;17.00;72.50;;;;;;5050309;28;43884;-73
2024/01/06 06:18:25;;;;;;;1.07;1.07;;;17.00;72.60;;;;;;5049301;28;45083;-73
2024/01/06 06:20:54;;;;;;;1.00;1.00;;;16.90;72.60;;;;;;5067083;28;43431;-72
2024/01/06 06:23:22;;;;;;;1.20;1.20;;;16.90;72.50;;;;;;5048804;28;43470;-73
2024/01/06 06:25:50;;;;;;;1.07;1.07;;;16.90;72.50;;;;;;5048729;28;45661;-74
2024/01/06 06:28:19;;;;;;;1.10;1.10;;;17.00;72.60;;;;;;5048263;28;44723;-71
2024/01/06 06:30:48;;;;;;;1.27;1.27;;;17.00;72.60;;;;;;5048866;28;43412;-73
2024/01/06 06:33:17;;;;;;;1.10;1.10;;;16.90;72.50;;;;;;5050516;28;43623;-75
2024/01/06 06:35:45;;;;;;;1.10;1.10;;;16.90;72.60;;;;;;5048190;28;46277;-72
2024/01/06 06:38:13;;;;;;;1.17;1.17;;;16.90;72.70;;;;;;5049763;28;43491;-73
2024/01/06 06:40:41;;;;;;;1.10;1.10;;;17.00;72.60;;;;;;5050400;28;43409;-70
2024/01/06 06:43:09;;;;;;;1.30;1.30;;;17.10;72.30;;;;;;5051001;28;43346;-72
2024/01/06 06:45:39;;;;;;;1.17;1.17;;;17.20;71.90;;;;;;5049849;28;43654;-73
2024/01/06 06:48:14;;;;;;;1.00;1.00;;;17.30;71.50;;;;;;5050038;28;43408;-72
2024/01/06 06:50:43;;;;;;;1.20;1.20;;;17.20;71.50;;;;;;5048638;28;43416;-72
2024/01/06 06:53:12;;;;;;;1.10;1.10;;;17.20;71.80;;;;;;5044210;28;43435;-72
2024/01/06 06:55:44;;;;;;;1.27;1.27;;;17.20;71.70;;;;;;5050098;28;44081;-73
2024/01/06 06:58:14;;;;;;;1.03;1.03;;;17.20;71.70;;;;;;5049652;28;43543;-72
2024/01/06 07:00:42;;;;;;;1.03;1.03;;;17.20;71.80;;;;;;5049426;28;43347;-72
2024/01/06 07:03:11;;;;;;;1.13;1.13;;;17.10;71.90;;;;;;5048398;28;43426;-72
2024/01/06 07:05:43;;;;;;;1.10;1.10;;;17.10;72.10;;;;;;5048187;28;45999;-71
2024/01/06 07:08:11;;;;;;;1.20;1.20;;;17.00;72.20;;;;;;5049814;28;43403;-71
2024/01/06 07:10:48;;;;;;;1.07;1.07;;;17.00;72.20;;;;;;5050250;28;43453;-70
2024/01/06 07:13:16;;;;;;;1.10;1.10;;;17.00;72.20;;;;;;5049927;28;43463;-72
2024/01/06 07:15:44;;;;;;;1.20;1.20;;;17.00;72.30;;;;;;5048504;28;43616;-72
2024/01/06 07:18:13;;;;;;;1.10;1.10;;;17.00;72.40;;;;;;5049624;28;43917;-72
2024/01/06 07:20:42;;;;;;;1.20;1.20;;;17.00;72.50;;;;;;5049842;28;43672;-72
2024/01/06 07:23:10;;;;;;;1.10;1.10;;;16.90;72.50;;;;;;5048009;28;43427;-72
2024/01/06 07:25:49;;;;;;;1.10;1.10;;;16.90;72.50;;;;;;5047711;28;45913;-72
2024/01/06 07:28:17;;;;;;;1.10;1.10;;;16.90;72.50;;;;;;5047512;28;45134;-73
2024/01/06 07:30:45;;;;;;;1.20;1.20;;;16.90;72.40;;;;;;5049106;28;43368;-70
2024/01/06 07:33:13;;;;;;;1.00;1.00;;;17.00;72.50;;;;;;5042890;28;43576;-71
2024/01/06 07:35:45;;;;;;;0.97;0.97;;;16.90;72.50;;;;;;5049000;28;43688;-71
2024/01/06 07:38:13;;;;;;;1.17;1.17;;;16.90;72.50;;;;;;5047247;28;45125;-71
2024/01/06 07:40:45;;;;;;;1.07;1.07;;;16.90;72.80;;;;;;5049492;28;43488;-71
2024/01/06 07:43:15;;;;;;;1.03;1.03;;;16.90;72.60;;;;;;5049488;28;43317;-71
2024/01/06 07:45:43;;;;;;;1.07;1.07;;;17.10;72.40;;;;;;5048971;28;43682;-71
2024/01/06 07:48:11;;;;;;;1.10;1.10;;;17.20;72.00;;;;;;5048866;28;43406;-73
2024/01/06 07:50:44;;;;;;;1.10;1.10;;;17.20;71.80;;;;;;5048954;28;43385;-71
2024/01/06 07:53:13;;;;;;;1.17;1.17;;;17.20;71.90;;;;;;5048941;28;43396;-73
2024/01/06 07:55:45;;;;;;;1.20;1.20;;;17.10;71.90;;;;;;5048936;28;43908;-74
2024/01/06 07:58:13;;;;;;;1.20;1.20;;;17.10;72.10;;;;;;5048900;28;43440;-73
2024/01/06 08:00:44;;;;;;;1.10;1.10;;;17.10;72.00;;;;;;5047658;28;43388;-71
2024/01/06 08:03:13;;;;;;;1.10;1.10;;;17.10;72.10;;;;;;5049717;28;43402;-72
2024/01/06 08:05:51;;;;;;;1.00;1.00;;;17.00;72.10;;;;;;5048438;28;43701;-72
2024/01/06 08:08:28;;;;;;;1.20;1.20;;;17.00;72.20;;;;;;5049998;28;43969;-75
2024/01/06 08:11:04;;;;;;;1.23;1.23;;;17.00;72.40;;;;;;5042955;28;43624;-71
2024/01/06 08:13:34;;;;;;;1.57;1.40;;;17.00;72.50;;;;;;5046180;28;43594;-72
2024/01/06 08:16:02;;;;;;;1.20;1.20;;;16.90;72.30;;;;;;5048787;28;43769;-71
2024/01/06 08:18:30;;;;;;;1.17;1.17;;;17.00;72.50;;;;;;5048873;28;43829;-71
2024/01/06 08:21:00;;;;;;;1.50;1.40;;;16.90;72.40;;;;;;5047924;28;43463;-73
2024/01/06 08:23:28;;;;;;;2.40;1.30;;;16.90;72.50;;;;;;5048727;28;43443;-71
2024/01/06 08:25:56;;;;;;;1.80;1.30;;;16.90;73.20;;;;;;5048450;28;43782;-72
2024/01/06 08:28:24;;;;;;;3.17;1.40;;;16.90;72.70;;;;;;5046029;28;44800;-71
2024/01/06 08:30:52;;;;;;;1.50;1.47;;;16.90;72.70;;;;;;5047236;28;43396;-71
2024/01/06 08:33:20;;;;;;;1.80;1.70;;;17.00;72.50;;;;;;5047150;28;43511;-72
2024/01/06 08:35:48;;;;;;;2.67;1.60;;;17.10;72.10;;;;;;5043346;28;43855;-71
2024/01/06 08:38:18;;;;;;;1.77;1.60;;;17.10;71.70;;;;;;5063941;28;44725;-71
2024/01/06 08:40:47;;;;;;;1.57;1.50;;;17.10;71.80;;;;;;5048345;28;43860;-71
2024/01/06 08:43:16;;;;;;;3.13;1.50;;;17.10;71.90;;;;;;5048466;28;43473;-73
2024/01/06 08:45:47;;;;;;;1.80;1.60;;;17.10;72.10;;;;;;5046980;28;45349;-73
2024/01/06 08:48:18;;;;;;;1.37;1.37;;;17.10;72.00;;;;;;5047157;28;44680;-73
2024/01/06 08:50:46;;;;;;;1.57;1.57;;;17.10;72.00;;;;;;5048652;28;43518;-72
2024/01/06 08:53:17;;;;;;;3.30;2.27;;;17.00;71.90;;;;;;5054426;28;43816;-75
2024/01/06 08:55:45;;;;;;;2.33;2.10;;;17.00;72.10;;;;;;5055519;28;43961;-74
2024/01/06 08:58:14;;;;;;;6.40;2.43;;;17.00;72.30;;;;;;5049476;28;43380;-73
2024/01/06 09:00:48;;;;;;;4.83;2.70;;;16.90;72.50;;;;;;5052053;28;43406;-73
2024/01/06 09:03:24;;;;;;;3.87;2.60;;;16.90;72.40;;;;;;5049852;28;43384;-72
2024/01/06 09:05:53;;;;;;;2.70;2.50;;;16.90;72.40;;;;;;5064693;28;45875;-73
2024/01/06 09:08:23;;;;;;;7.37;3.17;;;16.90;72.50;;;;;;5048396;28;43446;-72
2024/01/06 09:10:55;;;;;;;5.13;3.20;;;16.90;72.60;;;;;;5048129;28;43994;-73
2024/01/06 09:13:23;;;;;;;3.70;3.37;;;16.90;72.70;;;;;;5047995;28;44023;-73
2024/01/06 09:15:52;;;;;;;9.10;4.00;;;16.90;72.90;;;;;;5048250;28;43822;-73
2024/01/06 09:18:20;;;;;;;5.40;3.20;;;16.90;72.80;;;;;;5047286;28;43398;-75
2024/01/06 09:20:49;;;;;;;6.07;3.50;;;16.90;72.80;;;;;;5046390;28;43455;-75
2024/01/06 09:23:17;;;;;;;6.23;3.70;;;16.90;72.90;;;;;;5046146;28;43458;-74
2024/01/06 09:25:52;;;;;;;8.17;3.73;;;16.90;72.90;;;;;;5040755;28;43600;-71
2024/01/06 09:28:21;;;;;;;8.00;3.80;;;16.90;73.00;;;;;;5042279;28;43427;-74
2024/01/06 09:30:50;;;;;;;7.07;3.70;;;16.90;73.20;;;;;;5047699;28;43505;-73
2024/01/06 09:33:18;;;;;;;9.73;4.43;;;16.90;73.20;;;;;;5046433;28;43567;-73
2024/01/06 09:35:47;;;;;;;7.73;4.17;;;17.10;73.00;;;;;;5047263;28;43698;-73
2024/01/06 09:38:15;;;;;;;7.20;4.43;;;17.20;73.20;;;;;;5045346;28;44717;-73
2024/01/06 09:40:46;;;;;;;8.20;4.23;;;17.20;71.90;;;;;;5045522;28;43467;-73
2024/01/06 09:43:15;;;;;;;9.00;4.70;;;17.20;71.70;;;;;;5067502;28;43562;-74
2024/01/06 09:45:43;;;;;;;10.70;5.07;;;17.10;72.00;;;;;;5045548;28;46120;-72
2024/01/06 09:48:12;;;;;;;9.13;4.37;;;17.20;72.40;;;;;;5045409;28;44666;-73
2024/01/06 09:50:46;;;;;;;6.40;4.40;;;17.10;72.00;;;;;;5046876;28;44087;-73
2024/01/06 09:53:14;;;;;;;8.80;4.93;;;17.10;72.20;;;;;;5045405;28;43618;-72
2024/01/06 09:55:45;;;;;;;6.20;4.53;;;17.10;72.30;;;;;;5047142;28;43702;-70
2024/01/06 09:58:13;;;;;;;6.47;4.47;;;17.00;72.40;;;;;;5044823;28;43349;-73
2024/01/06 10:00:45;;;;;;;9.90;4.93;;;17.00;72.60;;;;;;5047064;28;44000;-74
2024/01/06 10:03:13;;;;;;;9.43;4.90;;;17.00;72.90;;;;;;5041158;28;43363;-72
2024/01/06 10:05:44;;;;;;;6.67;4.60;;;17.00;73.40;;;;;;5047047;28;43834;-73
2024/01/06 10:08:12;;;;;;;6.90;4.70;;;17.00;72.80;;;;;;5045773;28;43752;-73
2024/01/06 10:10:44;;;;;;;6.47;4.50;;;16.90;72.70;;;;;;5052178;28;44023;-72
2024/01/06 10:13:12;;;;;;;6.50;4.30;;;16.90;72.80;;;;;;5048716;28;43447;-73
2024/01/06 10:15:40;;;;;;;7.33;4.67;;;16.90;72.90;;;;;;5045595;28;45370;-72
2024/01/06 10:18:21;;;;;;;7.70;4.50;;;16.90;73.10;;;;;;5045206;28;44921;-74
2024/01/06 10:20:56;;;;;;;4.97;4.23;;;16.90;72.80;;;;;;5044974;28;43433;-73
2024/01/06 10:23:42;;;;;;;7.87;4.97;;;16.90;73.60;;;;;;5047549;28;43928;-73
2024/01/06 10:26:18;;;;;;;9.03;4.83;;;16.90;72.90;;;;;;5041622;28;43643;-72
2024/01/06 10:29:06;;;;;;;6.90;4.57;;;16.90;73.00;;;;;;5046575;28;43856;-73
2024/01/06 10:31:34;;;;;;;7.73;5.30;;;16.90;73.00;;;;;;5044817;28;43396;-72
2024/01/06 10:34:23;;;;;;;7.20;4.60;;;16.90;73.20;;;;;;5047050;28;43365;-73
2024/01/06 10:36:52;;;;;;;7.20;5.23;;;17.00;73.20;;;;;;5055337;28;45685;-72
2024/01/06 10:39:40;;;;;;;8.47;5.03;;;17.10;72.90;;;;;;5045110;28;44536;-73
2024/01/06 10:45:16;;;;;;;7.27;4.67;;;17.20;72.10;;;;;;5043860;28;43590;-74
2024/01/06 10:47:58;;;;;;;8.67;5.67;;;17.10;72.20;;;;;;5046172;28;43907;-73
2024/01/06 10:50:30;;;;;;;5.47;4.60;;;17.10;72.50;;;;;;5046441;28;43451;-73
2024/01/06 10:53:15;;;;;;;6.23;4.90;;;17.10;72.30;;;;;;5046279;28;43368;-72
2024/01/06 10:55:48;;;;;;;6.60;5.10;;;17.10;72.40;;;;;;5041315;28;43997;-72
2024/01/06 10:58:36;;;;;;;6.80;4.90;;;17.00;72.50;;;;;;5045934;28;43603;-73
2024/01/06 11:01:11;;;;;;;7.20;4.90;;;17.00;72.60;;;;;;5045907;28;45018;-72
2024/01/06 11:03:54;;;;;;;7.47;5.33;;;17.00;72.90;;;;;;5049213;28;43445;-72
2024/01/06 11:06:56;;;;;;;5.57;4.47;;;17.00;73.00;;;;;;5044027;28;44245;-73
2024/01/06 11:09:36;;;;;;;6.93;4.83;;;17.00;72.90;;;;;;5053295;28;43670;-72
2024/01/06 11:12:21;;;;;;;6.33;4.60;;;17.00;73.00;;;;;;5042895;28;44732;-74
2024/01/06 11:15:04;;;;;;;6.27;4.97;;;16.90;73.00;;;;;;5049206;28;43520;-71
2024/01/06 11:17:53;;;;;;;6.63;4.90;;;16.90;73.10;;;;;;5047904;28;43459;-73
2024/01/06 11:20:33;;;;;;;8.20;4.77;;;16.90;73.10;;;;;;5049224;28;44316;-74
2024/01/06 11:23:26;;;;;;;5.53;4.40;;;16.90;73.30;;;;;;5048254;28;43492;-73
2024/01/06 11:26:02;;;;;;;5.90;4.77;;;17.00;73.10;;;;;;5047769;28;44036;-73
2024/01/06 11:28:31;;;;;;;5.33;4.60;;;17.10;72.60;;;;;;5047903;28;43641;-75
2024/01/06 12:07:13;;;;;;;4.43;4.00;;;16.90;73.30;;;;;;5037456;28;43401;-72
2024/01/06 12:09:41;;;;;;;4.47;4.07;;;16.90;73.50;;;;;;5048699;28;43426;-72
2024/01/06 12:12:10;;;;;;;4.23;3.83;;;17.00;73.40;;;;;;5043395;28;43490;-71
2024/01/06 12:14:38;;;;;;;5.00;4.50;;;17.10;73.00;;;;;;5047696;28;43892;-70
2024/01/06 12:17:08;;;;;;;4.83;4.17;;;17.20;72.70;;;;;;5048050;28;44733;-73
2024/01/06 12:19:37;;;;;;;4.47;4.07;;;17.20;72.60;;;;;;5066891;28;43479;-72
2024/01/06 12:22:07;;;;;;;5.70;3.93;;;17.20;72.70;;;;;;5049476;28;43346;-72
2024/01/06 12:24:37;;;;;;;4.80;4.37;;;17.10;72.80;;;;;;5048319;28;43677;-71
2024/01/06 12:27:07;;;;;;;4.30;3.97;;;17.10;72.80;;;;;;5048310;28;43406;-70
2024/01/06 12:29:35;;;;;;;4.67;3.70;;;17.10;72.70;;;;;;5047484;28;43344;-70
2024/01/06 12:32:04;;;;;;;4.33;4.00;;;17.10;72.80;;;;;;5048368;28;43428;-71
2024/01/06 12:34:32;;;;;;;6.57;4.00;;;17.00;72.80;;;;;;5052246;28;43891;-71
2024/01/06 12:37:03;;;;;;;4.83;4.20;;;17.00;72.90;;;;;;5048534;28;43471;-71
2024/01/06 12:39:31;;;;;;;4.33;3.97;;;17.00;73.00;;;;;;5048398;28;43415;-73
2024/01/06 12:42:02;;;;;;;3.93;3.57;;;17.00;73.10;;;;;;5050321;28;43586;-71
2024/01/06 12:44:32;;;;;;;4.53;3.70;;;17.00;73.00;;;;;;5043607;28;45100;-71
2024/01/06 12:47:00;;;;;;;6.00;4.30;;;17.00;73.00;;;;;;5045903;28;44783;-73
2024/01/06 12:49:29;;;;;;;4.93;3.90;;;17.00;73.00;;;;;;5048476;28;43462;-70
2024/01/06 12:51:57;;;;;;;4.50;4.10;;;16.90;73.10;;;;;;5056133;28;44254;-71
2024/01/06 12:54:25;;;;;;;7.17;3.83;;;16.90;73.10;;;;;;5055275;28;43841;-71
2024/01/06 12:56:53;;;;;;;4.90;4.13;;;16.90;73.30;;;;;;5055128;28;44092;-70
2024/01/06 12:59:22;;;;;;;5.07;4.57;;;16.90;73.20;;;;;;5054961;28;43490;-72
2024/01/06 13:01:50;;;;;;;4.87;4.00;;;17.10;73.00;;;;;;5056610;28;43993;-71
2024/01/06 13:04:19;;;;;;;4.20;3.80;;;17.10;72.50;;;;;;5054786;28;43684;-72
2024/01/06 13:06:48;;;;;;;4.30;3.90;;;17.10;73.10;;;;;;5055463;28;43446;-72
2024/01/06 13:09:17;;;;;;;4.77;4.30;;;17.10;72.40;;;;;;5055352;28;43457;-72
2024/01/06 13:11:46;;;;;;;4.90;4.20;;;17.10;72.60;;;;;;5046475;28;43667;-71
2024/01/06 13:14:14;;;;;;;4.27;3.93;;;17.10;72.70;;;;;;5045455;28;45708;-71
2024/01/06 13:16:44;;;;;;;4.33;3.93;;;17.10;72.60;;;;;;5049529;28;43535;-72
2024/01/06 13:19:12;;;;;;;4.47;3.70;;;17.10;72.70;;;;;;5051301;28;43462;-71
2024/01/06 13:21:40;;;;;;;4.03;3.73;;;17.00;73.00;;;;;;5047845;28;43526;-72
2024/01/06 13:24:09;;;;;;;4.50;4.00;;;17.00;72.90;;;;;;5045579;28;45272;-74
2024/01/06 13:26:38;;;;;;;4.30;3.90;;;17.00;72.90;;;;;;5045418;28;43432;-74
2024/01/06 13:29:06;;;;;;;3.97;3.67;;;16.90;72.90;;;;;;5046977;28;44074;-72
2024/01/06 13:31:34;;;;;;;4.03;3.73;;;16.90;73.00;;;;;;5046494;28;43449;-72
2024/01/06 13:34:04;;;;;;;4.03;3.73;;;16.90;73.00;;;;;;5044999;28;45812;-74
2024/01/06 13:36:32;;;;;;;4.10;3.80;;;16.90;73.00;;;;;;5046790;28;43997;-74
2024/01/06 13:39:00;;;;;;;3.97;3.67;;;16.90;73.10;;;;;;5046411;28;43416;-74
2024/01/06 13:41:28;;;;;;;4.23;3.83;;;16.90;73.20;;;;;;5044173;28;43518;-73
2024/01/06 13:43:55;;;;;;;3.83;3.53;;;16.90;73.20;;;;;;5047919;28;43911;-74
2024/01/06 13:46:24;;;;;;;4.50;4.10;;;16.90;73.20;;;;;;5046915;28;43940;-73